createdAt,value
2018-06-14T00:00:17.045Z,8.17
2018-06-14T00:02:44.832Z,9.60
2018-06-14T00:05:12.400Z,8.50
2018-06-14T00:07:40.654Z,9.53
2018-06-14T00:10:08.875Z,9.60
2018-06-14T00:12:36.380Z,10.00
2018-06-14T00:15:04.537Z,9.87
2018-06-14T00:17:32.102Z,9.60
2018-06-14T00:19:59.621Z,9.17
2018-06-14T00:22:27.130Z,9.10
2018-06-14T00:24:54.689Z,9.30
2018-06-14T00:27:22.117Z,8.63
2018-06-14T00:29:49.658Z,8.10
2018-06-14T00:32:17.232Z,8.87
2018-06-14T00:34:44.769Z,9.10
2018-06-14T00:37:12.317Z,8.40
2018-06-14T00:39:39.837Z,8.30
2018-06-14T00:42:07.369Z,8.77
2018-06-14T00:44:35.132Z,8.00
2018-06-14T00:47:02.817Z,8.90
2018-06-14T00:49:30.327Z,8.50
2018-06-14T00:51:57.870Z,8.80
2018-06-14T00:54:25.420Z,8.67
2018-06-14T00:57:04.353Z,8.20
2018-06-14T00:59:31.989Z,10.10
2018-06-14T01:01:59.429Z,9.03
2018-06-14T01:04:26.940Z,8.67
2018-06-14T01:06:54.675Z,9.70
2018-06-14T01:09:22.191Z,8.97
2018-06-14T01:11:49.716Z,9.20
2018-06-14T01:14:17.218Z,8.33
2018-06-14T01:16:44.799Z,9.23
2018-06-14T01:19:12.318Z,9.93
2018-06-14T01:21:39.838Z,9.97
2018-06-14T01:24:07.691Z,9.40
2018-06-14T01:26:35.252Z,8.70
2018-06-14T01:29:02.817Z,9.80
2018-06-14T01:31:30.349Z,8.47
2018-06-14T01:33:57.861Z,9.13
2018-06-14T01:36:25.469Z,8.40
2018-06-14T01:38:53.000Z,8.60
2018-06-14T01:41:20.530Z,8.27
2018-06-14T01:43:48.129Z,9.93
2018-06-14T01:46:15.862Z,9.17
2018-06-14T01:48:43.412Z,9.90
2018-06-14T01:51:10.937Z,9.13
2018-06-14T01:53:38.516Z,8.47
2018-06-14T01:56:06.110Z,9.70
2018-06-14T01:58:33.646Z,9.20
2018-06-14T02:01:01.387Z,9.43
2018-06-14T02:03:29.266Z,9.90
2018-06-14T02:05:56.801Z,8.77
2018-06-14T02:08:24.325Z,10.37
2018-06-14T02:10:51.837Z,10.67
2018-06-14T02:13:19.382Z,10.23
2018-06-14T02:15:46.881Z,9.73
2018-06-14T02:18:14.392Z,10.20
2018-06-14T02:20:41.896Z,11.60
2018-06-14T02:23:09.427Z,9.97
2018-06-14T02:25:37.106Z,9.93
2018-06-14T02:28:04.949Z,10.73
2018-06-14T02:30:32.458Z,10.00
2018-06-14T02:32:59.973Z,10.70
2018-06-14T02:35:27.526Z,10.33
2018-06-14T02:37:56.031Z,10.53
2018-06-14T02:40:23.562Z,10.40
2018-06-14T02:42:51.087Z,10.63
2018-06-14T02:45:18.625Z,12.17
2018-06-14T02:47:46.141Z,10.53
2018-06-14T02:50:13.681Z,12.30
2018-06-14T02:52:41.177Z,12.40
2018-06-14T02:55:08.706Z,12.20
2018-06-14T02:57:36.266Z,13.00
2018-06-14T03:00:04.783Z,12.03
2018-06-14T03:02:32.287Z,11.70
2018-06-14T03:04:59.874Z,11.43
2018-06-14T03:07:33.437Z,11.00
2018-06-14T03:10:01.495Z,10.50
2018-06-14T03:12:29.286Z,10.80
2018-06-14T03:14:56.827Z,12.40
2018-06-14T03:17:24.257Z,10.87
2018-06-14T03:19:52.454Z,11.70
2018-06-14T03:22:21.237Z,10.67
2018-06-14T03:24:48.837Z,12.13
2018-06-14T03:27:16.709Z,11.83
2018-06-14T03:29:44.260Z,12.30
2018-06-14T03:32:11.818Z,10.67
2018-06-14T03:34:39.378Z,11.00
2018-06-14T03:37:07.038Z,12.77
2018-06-14T03:39:34.545Z,10.80
2018-06-14T03:42:07.575Z,11.87
2018-06-14T03:44:36.465Z,12.80
2018-06-14T03:47:05.363Z,12.60
2018-06-14T03:49:32.992Z,12.97
2018-06-14T03:52:00.609Z,13.40
2018-06-14T03:54:28.085Z,12.73
2018-06-14T03:56:55.808Z,12.50
2018-06-14T03:59:23.305Z,13.60
2018-06-14T04:01:50.829Z,12.00
2018-06-14T04:04:18.558Z,14.80
2018-06-14T04:06:46.065Z,13.30
2018-06-14T04:09:13.573Z,13.60
2018-06-14T04:11:41.076Z,12.83
2018-06-14T04:14:08.654Z,13.10
2018-06-14T04:16:37.073Z,13.47
2018-06-14T04:19:05.105Z,12.70
2018-06-14T04:21:32.602Z,14.10
2018-06-14T04:24:00.282Z,13.40
2018-06-14T04:26:27.806Z,11.00
2018-06-14T04:28:55.236Z,12.90
2018-06-14T04:31:22.940Z,13.90
2018-06-14T04:33:50.489Z,13.50
2018-06-14T04:36:18.458Z,11.37
2018-06-14T04:38:46.077Z,14.13
2018-06-14T04:41:13.566Z,12.70
2018-06-14T04:43:41.266Z,12.47
2018-06-14T04:46:08.802Z,12.00
2018-06-14T04:48:36.357Z,12.87
2018-06-14T04:51:04.142Z,12.43
2018-06-14T04:53:31.871Z,11.50
2018-06-14T04:55:59.569Z,11.33
2018-06-14T04:58:27.122Z,13.40
2018-06-14T05:00:54.764Z,12.30
2018-06-14T05:03:22.434Z,12.40
2018-06-14T05:05:50.033Z,13.00
2018-06-14T05:08:22.125Z,13.40
2018-06-14T05:10:50.051Z,12.13
2018-06-14T05:13:17.645Z,13.17
2018-06-14T05:15:45.785Z,13.43
2018-06-14T05:18:13.297Z,15.30
2018-06-14T05:20:40.921Z,14.90
2018-06-14T05:23:08.457Z,15.77
2018-06-14T05:25:36.002Z,15.83
2018-06-14T05:28:03.537Z,16.43
2018-06-14T05:30:31.056Z,14.80
2018-06-14T05:33:01.132Z,13.70
2018-06-14T05:35:28.716Z,15.00
2018-06-14T05:37:56.238Z,16.13
2018-06-14T05:40:23.785Z,15.13
2018-06-14T05:42:51.337Z,15.37
2018-06-14T05:45:18.941Z,14.83
2018-06-14T05:47:46.486Z,14.07
2018-06-14T05:50:13.925Z,14.43
2018-06-14T05:52:41.481Z,17.10
2018-06-14T05:55:09.036Z,14.07
2018-06-14T05:57:36.633Z,12.93
2018-06-14T06:00:04.802Z,15.23
2018-06-14T06:02:32.329Z,14.17
2018-06-14T06:04:59.873Z,14.23
2018-06-14T06:07:27.397Z,13.30
2018-06-14T06:09:54.936Z,13.23
2018-06-14T06:12:22.468Z,12.20
2018-06-14T06:14:50.010Z,14.20
2018-06-14T06:17:17.569Z,11.93
2018-06-14T06:19:45.191Z,13.80
2018-06-14T06:22:12.729Z,12.10
2018-06-14T06:24:40.277Z,11.70
2018-06-14T06:27:07.798Z,12.67
2018-06-14T06:29:35.304Z,11.67
2018-06-14T06:32:02.866Z,10.60
2018-06-14T06:34:30.381Z,12.27
2018-06-14T06:36:57.982Z,11.33
2018-06-14T06:39:25.504Z,12.77
2018-06-14T06:41:53.041Z,10.73
2018-06-14T06:44:20.555Z,12.37
2018-06-14T06:46:48.053Z,12.67
2018-06-14T06:49:15.569Z,12.37
2018-06-14T06:51:43.110Z,12.70
2018-06-14T06:54:10.613Z,10.57
2018-06-14T06:56:38.162Z,11.80
2018-06-14T06:59:05.705Z,10.10
2018-06-14T07:01:33.300Z,10.10
2018-06-14T07:04:00.818Z,9.60
2018-06-14T07:06:28.394Z,10.33
2018-06-14T07:08:55.876Z,10.00
2018-06-14T07:11:23.615Z,10.63
2018-06-14T07:13:51.155Z,9.60
2018-06-14T07:16:18.720Z,9.20
2018-06-14T07:18:46.448Z,10.07
2018-06-14T07:21:14.007Z,9.77
2018-06-14T07:23:41.537Z,8.27
2018-06-14T07:26:09.057Z,7.10
2018-06-14T07:28:36.585Z,8.30
2018-06-14T07:31:04.145Z,7.50
2018-06-14T07:33:31.671Z,7.20
2018-06-14T07:35:59.215Z,6.30
2018-06-14T07:38:26.745Z,8.43
2018-06-14T07:40:54.276Z,6.03
2018-06-14T07:43:21.785Z,5.00
2018-06-14T07:45:49.400Z,5.13
2018-06-14T07:48:16.951Z,6.10
2018-06-14T07:50:44.747Z,5.30
2018-06-14T07:53:12.313Z,6.50
2018-06-14T07:55:40.053Z,6.70
2018-06-14T07:58:07.572Z,7.20
2018-06-14T08:00:35.139Z,7.53
2018-06-14T08:03:02.667Z,6.80
2018-06-14T08:05:30.202Z,7.40
2018-06-14T08:07:57.735Z,6.60
2018-06-14T08:10:25.540Z,5.67
2018-06-14T08:12:53.240Z,6.67
2018-06-14T08:15:20.749Z,6.67
2018-06-14T08:17:48.334Z,6.70
2018-06-14T08:20:15.893Z,6.80
2018-06-14T08:22:43.422Z,5.87
2018-06-14T08:25:10.951Z,6.40
2018-06-14T08:27:38.521Z,5.40
2018-06-14T08:30:06.121Z,5.57
2018-06-14T08:32:33.684Z,5.30
2018-06-14T08:35:01.221Z,7.03
2018-06-14T08:37:29.798Z,6.40
2018-06-14T08:39:57.427Z,6.23
2018-06-14T08:42:25.741Z,5.30
2018-06-14T08:44:53.811Z,6.10
2018-06-14T08:47:21.325Z,5.67
2018-06-14T08:49:48.990Z,6.13
2018-06-14T08:52:16.424Z,6.43
2018-06-14T08:54:43.933Z,5.60
2018-06-14T08:57:11.493Z,5.60
2018-06-14T08:59:39.022Z,5.63
2018-06-14T09:02:06.547Z,6.60
2018-06-14T09:04:34.071Z,5.97
2018-06-14T09:07:01.933Z,7.23
2018-06-14T09:09:29.477Z,6.40
2018-06-14T09:11:57.106Z,8.00
2018-06-14T09:14:24.630Z,7.27
2018-06-14T09:16:52.237Z,7.80
2018-06-14T09:19:19.765Z,7.67
2018-06-14T09:21:47.340Z,6.70
2018-06-14T09:24:14.948Z,6.80
2018-06-14T09:26:42.601Z,7.70
2018-06-14T09:29:10.105Z,7.13
2018-06-14T09:31:37.935Z,7.00
2018-06-14T09:34:05.543Z,7.63
2018-06-14T09:36:33.678Z,8.20
2018-06-14T09:39:01.305Z,7.33
2018-06-14T09:41:28.853Z,8.33
2018-06-14T09:43:56.394Z,8.10
2018-06-14T09:46:23.936Z,6.90
2018-06-14T09:48:57.073Z,7.60
2018-06-14T09:51:24.675Z,9.30
2018-06-14T09:53:52.181Z,8.10
2018-06-14T09:56:19.769Z,9.13
2018-06-14T09:58:47.297Z,9.50
2018-06-14T10:01:14.797Z,8.77
2018-06-14T10:03:42.333Z,7.90
2018-06-14T10:06:09.903Z,7.80
2018-06-14T10:08:37.455Z,7.77
2018-06-14T10:11:05.370Z,7.20
2018-06-14T10:13:32.888Z,7.33
2018-06-14T10:16:00.465Z,7.20
2018-06-14T10:18:27.972Z,7.43
2018-06-14T10:20:55.529Z,8.30
2018-06-14T10:23:23.018Z,7.50
2018-06-14T10:25:50.578Z,6.83
2018-06-14T10:28:18.103Z,7.33
2018-06-14T10:30:45.685Z,7.07
2018-06-14T10:33:13.281Z,7.90
2018-06-14T10:35:40.849Z,6.70
2018-06-14T10:38:08.397Z,6.90
2018-06-14T10:40:35.950Z,6.87
2018-06-14T10:43:04.882Z,6.43
2018-06-14T10:45:33.123Z,7.90
2018-06-14T10:48:00.859Z,6.97
2018-06-14T10:50:28.504Z,6.93
2018-06-14T10:52:56.045Z,7.93
2018-06-14T10:55:23.590Z,7.40
2018-06-14T10:57:51.165Z,7.90
2018-06-14T11:00:18.951Z,7.70
2018-06-14T11:02:46.468Z,8.83
2018-06-14T11:05:14.079Z,9.03
2018-06-14T11:07:41.643Z,9.73
2018-06-14T11:10:09.396Z,8.67
2018-06-14T11:12:36.928Z,7.93
2018-06-14T11:15:04.463Z,8.80
2018-06-14T11:17:32.040Z,8.97
2018-06-14T11:19:59.653Z,8.73
2018-06-14T11:22:27.249Z,9.10
2018-06-14T11:25:00.422Z,10.00
2018-06-14T11:27:28.259Z,9.57
2018-06-14T11:29:55.896Z,9.87
2018-06-14T11:32:24.998Z,8.47
2018-06-14T11:34:53.113Z,7.87
2018-06-14T11:37:20.792Z,8.27
2018-06-14T11:39:48.340Z,7.17
2018-06-14T11:42:15.914Z,7.30
2018-06-14T11:44:43.446Z,8.00
2018-06-14T11:47:11.049Z,7.90
2018-06-14T11:49:38.586Z,7.47
2018-06-14T11:52:06.198Z,6.97
2018-06-14T11:54:33.993Z,6.13
2018-06-14T11:57:01.555Z,8.17
2018-06-14T11:59:30.454Z,6.37
2018-06-14T12:01:58.016Z,6.83
2018-06-14T12:04:25.565Z,6.90
2018-06-14T12:06:59.730Z,5.50
2018-06-14T12:09:27.310Z,6.77
2018-06-14T12:11:54.896Z,5.97
2018-06-14T12:14:23.205Z,5.70
2018-06-14T12:16:50.744Z,6.07
2018-06-14T12:19:18.499Z,6.83
2018-06-14T12:21:46.041Z,5.83
2018-06-14T12:24:13.627Z,5.93
2018-06-14T12:26:41.240Z,5.90
2018-06-14T12:29:11.120Z,5.87
2018-06-14T12:31:38.670Z,5.23
2018-06-14T12:34:06.257Z,5.80
2018-06-14T12:36:33.777Z,5.60
2018-06-14T12:39:01.394Z,6.20
2018-06-14T12:41:29.001Z,6.60
2018-06-14T12:44:03.165Z,5.17
2018-06-14T12:46:30.722Z,6.10
2018-06-14T12:48:58.253Z,4.77
2018-06-14T12:51:25.841Z,5.13
2018-06-14T12:53:53.410Z,5.20
2018-06-14T12:56:20.997Z,5.50
2018-06-14T12:58:48.574Z,5.07
2018-06-14T13:01:16.133Z,4.60
2018-06-14T13:03:43.758Z,5.00
2018-06-14T13:06:11.416Z,5.23
2018-06-14T13:08:39.194Z,4.80
2018-06-14T13:11:06.870Z,4.90
2018-06-14T13:13:34.539Z,5.23
2018-06-14T13:16:02.340Z,4.70
2018-06-14T13:18:30.165Z,4.40
2018-06-14T13:20:57.839Z,4.20
2018-06-14T13:23:25.649Z,4.40
2018-06-14T13:25:53.317Z,5.17
2018-06-14T13:28:21.005Z,4.33
2018-06-14T13:30:48.756Z,4.73
2018-06-14T13:33:16.426Z,4.33
2018-06-14T13:35:44.070Z,4.23
2018-06-14T13:38:11.697Z,4.03
2018-06-14T13:40:39.434Z,4.37
2018-06-14T13:43:07.030Z,4.40
2018-06-14T13:45:34.797Z,4.43
2018-06-14T13:48:02.403Z,4.50
2018-06-14T13:50:30.013Z,3.77
2018-06-14T13:52:57.564Z,4.93
2018-06-14T13:55:25.163Z,3.97
2018-06-14T13:57:52.768Z,4.20
2018-06-14T14:00:20.256Z,5.37
2018-06-14T14:02:47.809Z,4.63
2018-06-14T14:05:15.404Z,4.27
2018-06-14T14:07:42.958Z,4.17
2018-06-14T14:10:10.498Z,3.77
2018-06-14T14:12:38.038Z,4.10
2018-06-14T14:15:05.722Z,4.40
2018-06-14T14:17:33.445Z,3.70
2018-06-14T14:20:00.972Z,3.90
2018-06-14T14:22:28.579Z,4.20
2018-06-14T14:24:56.129Z,4.53
2018-06-14T14:27:24.438Z,3.10
2018-06-14T14:29:51.954Z,3.93
2018-06-14T14:32:19.501Z,3.40
2018-06-14T14:34:47.068Z,3.73
2018-06-14T14:37:14.577Z,3.70
2018-06-14T14:39:42.116Z,3.27
2018-06-14T14:42:09.616Z,3.20
2018-06-14T14:44:37.345Z,4.30
2018-06-14T14:47:04.938Z,3.50
2018-06-14T14:49:32.473Z,3.80
2018-06-14T14:52:00.038Z,3.67
2018-06-14T14:54:27.592Z,5.17
2018-06-14T14:56:55.262Z,3.93
2018-06-14T14:59:22.825Z,4.63
2018-06-14T15:01:50.426Z,4.80
2018-06-14T15:04:18.043Z,3.80
2018-06-14T15:06:45.581Z,5.50
2018-06-14T15:09:13.367Z,4.37
2018-06-14T15:11:41.029Z,5.27
2018-06-14T15:14:08.552Z,4.80
2018-06-14T15:16:36.435Z,4.53
2018-06-14T15:19:04.475Z,4.83
2018-06-14T15:21:32.466Z,5.33
2018-06-14T15:24:00.255Z,5.10
2018-06-14T15:26:28.196Z,6.10
2018-06-14T15:28:56.903Z,5.70
2018-06-14T15:31:24.955Z,5.70
2018-06-14T15:33:53.133Z,6.17
2018-06-14T15:36:20.921Z,5.80
2018-06-14T15:38:51.909Z,6.03
2018-06-14T15:41:19.580Z,6.00
2018-06-14T15:43:47.497Z,6.13
2018-06-14T15:46:15.453Z,5.70
2018-06-14T15:48:43.289Z,6.70
2018-06-14T15:51:11.336Z,7.30
2018-06-14T15:53:39.205Z,6.40
2018-06-14T15:56:23.846Z,7.90
2018-06-14T15:58:51.660Z,8.07
2018-06-14T16:01:19.345Z,7.37
2018-06-14T16:03:46.946Z,9.80
2018-06-14T16:06:15.092Z,8.70
2018-06-14T16:08:43.030Z,7.77
2018-06-14T16:11:10.887Z,10.33
2018-06-14T16:13:38.554Z,9.37
2018-06-14T16:16:06.818Z,11.67
2018-06-14T16:18:34.526Z,9.83
2018-06-14T16:21:02.286Z,11.33
2018-06-14T16:23:30.140Z,9.53
2018-06-14T16:25:57.927Z,10.57
2018-06-14T16:28:26.105Z,9.30
2018-06-14T16:30:53.909Z,8.40
2018-06-14T16:33:21.801Z,9.20
2018-06-14T16:35:49.557Z,9.73
2018-06-14T16:38:17.551Z,8.73
2018-06-14T16:40:47.276Z,11.83
2018-06-14T16:43:15.243Z,10.70
2018-06-14T16:45:42.964Z,11.27
2018-06-14T16:48:11.346Z,11.10
2018-06-14T16:50:39.157Z,11.07
2018-06-14T16:53:07.356Z,12.80
2018-06-14T16:55:35.258Z,11.87
2018-06-14T16:58:03.128Z,12.70
2018-06-14T17:00:31.113Z,11.60
2018-06-14T17:02:59.164Z,11.77
2018-06-14T17:05:27.020Z,10.73
2018-06-14T17:07:54.905Z,11.77
2018-06-14T17:10:22.776Z,11.50
2018-06-14T17:12:50.703Z,10.83
2018-06-14T17:15:18.481Z,11.70
2018-06-14T17:17:46.130Z,12.77
2018-06-14T17:20:13.859Z,11.03
2018-06-14T17:22:41.653Z,12.90
2018-06-14T17:25:09.280Z,17.30
2018-06-14T17:27:36.985Z,14.80
2018-06-14T17:30:04.980Z,13.50
2018-06-14T17:32:32.663Z,13.53
2018-06-14T17:35:00.441Z,15.27
2018-06-14T17:37:28.007Z,13.60
2018-06-14T17:39:55.554Z,13.27
2018-06-14T17:42:23.102Z,12.83
2018-06-14T17:44:50.660Z,13.03
2018-06-14T17:47:18.217Z,13.80
2018-06-14T17:49:46.831Z,13.23
2018-06-14T17:52:14.524Z,14.10
2018-06-14T17:54:42.082Z,12.90
2018-06-14T17:57:09.610Z,12.53
2018-06-14T17:59:37.154Z,11.70
2018-06-14T18:02:04.895Z,13.20
2018-06-14T18:04:33.519Z,12.73
2018-06-14T18:07:01.094Z,13.33
2018-06-14T18:09:30.667Z,10.50
2018-06-14T18:11:58.240Z,12.03
2018-06-14T18:14:25.781Z,10.90
2018-06-14T18:16:54.099Z,12.30
2018-06-14T18:19:21.693Z,10.80
2018-06-14T18:21:49.282Z,11.30
2018-06-14T18:24:17.082Z,10.27
2018-06-14T18:26:45.906Z,11.50
2018-06-14T18:29:13.475Z,12.17
2018-06-14T18:31:41.084Z,12.10
2018-06-14T18:34:08.681Z,10.93
2018-06-14T18:36:36.246Z,11.23
2018-06-14T18:39:07.011Z,11.63
2018-06-14T18:41:34.553Z,10.83
2018-06-14T18:44:02.255Z,12.70
2018-06-14T18:46:29.897Z,12.70
2018-06-14T18:48:57.531Z,12.63
2018-06-14T18:51:25.063Z,10.70
2018-06-14T18:53:52.666Z,11.77
2018-06-14T18:56:20.229Z,11.50
2018-06-14T18:58:47.786Z,11.57
2018-06-14T19:01:15.387Z,11.63
2018-06-14T19:03:42.942Z,11.20
2018-06-14T19:06:10.488Z,10.27
2018-06-14T19:08:38.054Z,11.80
2018-06-14T19:11:05.896Z,10.50
2018-06-14T19:13:33.479Z,12.30
2018-06-14T19:16:01.030Z,12.30
2018-06-14T19:18:28.577Z,11.90
2018-06-14T19:20:56.156Z,11.63
2018-06-14T19:23:23.714Z,12.97
2018-06-14T19:25:51.309Z,11.70
2018-06-14T19:28:18.849Z,13.40
2018-06-14T19:30:46.366Z,12.10
2018-06-14T19:33:13.893Z,11.43
2018-06-14T19:35:41.401Z,11.70
2018-06-14T19:38:09.023Z,12.00
2018-06-14T19:40:36.669Z,11.97
2018-06-14T19:43:04.433Z,11.63
2018-06-14T19:45:32.049Z,12.77
2018-06-14T19:47:59.762Z,11.87
2018-06-14T19:50:27.417Z,11.50
2018-06-14T19:52:54.961Z,12.63
2018-06-14T19:55:22.552Z,12.60
2018-06-14T19:57:50.077Z,12.27
2018-06-14T20:00:17.631Z,11.67
2018-06-14T20:02:45.163Z,13.57
2018-06-14T20:05:12.685Z,13.90
2018-06-14T20:07:40.208Z,13.37
2018-06-14T20:10:07.749Z,12.47
2018-06-14T20:12:35.308Z,13.60
2018-06-14T20:15:02.865Z,13.80
2018-06-14T20:17:30.389Z,13.77
2018-06-14T20:19:57.977Z,13.40
2018-06-14T20:22:25.505Z,13.80
2018-06-14T20:24:53.033Z,14.00
2018-06-14T20:27:20.544Z,14.60
2018-06-14T20:29:48.135Z,13.47
2018-06-14T20:32:15.670Z,13.03
2018-06-14T20:34:43.226Z,12.60
2018-06-14T20:37:10.794Z,13.50
2018-06-14T20:39:38.323Z,13.80
2018-06-14T20:42:06.027Z,14.67
2018-06-14T20:44:33.504Z,14.90
2018-06-14T20:47:01.049Z,13.53
2018-06-14T20:49:28.569Z,13.80
2018-06-14T20:51:56.116Z,14.70
2018-06-14T20:54:23.684Z,15.20
2018-06-14T20:56:51.230Z,14.00
2018-06-14T20:59:18.756Z,17.23
2018-06-14T21:01:46.925Z,17.83
2018-06-14T21:04:14.573Z,20.00
2018-06-14T21:06:42.806Z,20.90
2018-06-14T21:09:10.796Z,19.50
2018-06-14T21:11:38.521Z,21.93
2018-06-14T21:14:06.249Z,23.00
2018-06-14T21:16:34.253Z,22.50
2018-06-14T21:19:01.765Z,22.00
2018-06-14T21:21:29.730Z,21.40
2018-06-14T21:23:57.413Z,19.70
2018-06-14T21:26:25.063Z,21.63
2018-06-14T21:28:52.594Z,19.73
2018-06-14T21:31:20.117Z,19.20
2018-06-14T21:33:47.623Z,19.50
2018-06-14T21:36:15.279Z,19.20
2018-06-14T21:38:42.833Z,18.17
2018-06-14T21:41:10.388Z,18.73
2018-06-14T21:43:38.018Z,18.47
2018-06-14T21:46:06.228Z,19.07
2018-06-14T21:48:33.825Z,19.07
2018-06-14T21:51:01.362Z,18.27
2018-06-14T21:53:29.095Z,19.93
2018-06-14T21:55:56.663Z,18.40
2018-06-14T21:58:24.183Z,20.10
2018-06-14T22:00:51.856Z,19.40
2018-06-14T22:03:24.839Z,20.80
2018-06-14T22:05:52.373Z,19.67
2018-06-14T22:08:19.865Z,18.70
2018-06-14T22:10:47.410Z,19.13
2018-06-14T22:13:14.974Z,20.23
2018-06-14T22:15:42.764Z,20.20
2018-06-14T22:18:10.591Z,22.00
2018-06-14T22:20:38.158Z,21.03
2018-06-14T22:23:05.848Z,20.03
2018-06-14T22:25:33.413Z,21.90
2018-06-14T22:28:01.001Z,20.37
2018-06-14T22:30:28.575Z,18.27
2018-06-14T22:33:07.612Z,19.37
2018-06-14T22:35:35.189Z,19.03
2018-06-14T22:38:02.839Z,17.50
2018-06-14T22:40:30.409Z,16.90
2018-06-14T22:42:58.612Z,16.37
2018-06-14T22:45:26.171Z,15.93
2018-06-14T22:47:53.731Z,15.20
2018-06-14T22:50:32.566Z,15.40
2018-06-14T22:53:01.237Z,16.33
2018-06-14T22:55:28.785Z,15.60
2018-06-14T22:57:56.385Z,15.63
2018-06-14T23:02:02.726Z,14.47
2018-06-14T23:04:30.816Z,15.10
2018-06-14T23:06:58.539Z,15.67
2018-06-14T23:10:36.497Z,15.20
2018-06-14T23:13:04.768Z,14.93
2018-06-14T23:15:32.281Z,15.63
2018-06-14T23:17:59.891Z,16.17
2018-06-14T23:20:28.350Z,15.03
2018-06-14T23:22:56.708Z,16.07
2018-06-14T23:25:25.000Z,15.10
2018-06-14T23:27:52.521Z,16.23
2018-06-14T23:30:20.111Z,16.43
2018-06-14T23:32:47.738Z,15.13
2018-06-14T23:35:15.643Z,15.70
2018-06-14T23:37:43.225Z,16.80
2018-06-14T23:40:10.863Z,16.60
2018-06-14T23:42:38.390Z,17.20
2018-06-14T23:45:05.796Z,16.80
2018-06-14T23:47:33.255Z,17.63
2018-06-14T23:50:00.676Z,16.40
2018-06-14T23:52:28.145Z,18.37
2018-06-14T23:54:55.577Z,16.60
2018-06-14T23:57:23.278Z,18.70
2018-06-14T23:59:51.005Z,18.80
